• Join FlightAware (Why Join?)
  • Login
  • US Flag 
02:54AM EST


 

Airport Tracker/Info


-or-


 

Live Flight TrackerFlight Track Log ✈ OPT330 ✈ 24-Apr-2014 ✈ KSAN - KCVH

Flight Track Log - Related Links

Times and Time Zones

All times are in EDT time to prevent confusion due to time zone crossing. See the OPT330 flight status page for this flight to view local times or setup timezone preferences in your user account.

Time Position Orientation Groundspeed Altitude Reporting Facility
EDT Latitude Longitude Course Direction KTS MPH feet Rate Location/Type
06:21PM 32.7552 -117.2369 301° West 234 269 3,000  Level FlightAware ADS-B
06:21PM 32.7675 -117.2603 303° West 245 282 4,400 3,960 Climbing FlightAware ADS-B
06:22PM 32.7781 -117.2797 302° West 250 288 5,600 4,380 Climbing FlightAware ADS-B
06:22PM 32.7909 -117.3041 302° West 250 288 7,200 4,800 Climbing FlightAware ADS-B
06:22PM 32.7967 -117.3150 302° West 249 287 8,000 4,080 Climbing FlightAware ADS-B
06:22PM 32.7993 -117.3198 303° West 249 287 9,400 3,840 Climbing FlightAware ADS-B (EGPK / PIK)
06:23PM 32.8229 -117.3638 302° West 260 299 11,700 3,660 Climbing FlightAware ADS-B (EGPK / PIK)
06:24PM 32.8542 -117.4236 302° West 267 307 13,500 2,700 Climbing FlightAware ADS-B
06:24PM 32.8781 -117.4658 308° West 289 333 14,700 1,560 Climbing FlightAware ADS-B (EGPK / PIK)
06:24PM 32.8987 -117.4873 326° Northwest 299 344 14,900 420 Climbing FlightAware ADS-B (EGPK / PIK)
06:25PM 32.9186 -117.5023 328° Northwest 299 344 15,000 120 Climbing FlightAware ADS-B
06:25PM 32.9582 -117.5310 329° Northwest 314 361 15,000  Level FlightAware ADS-B
06:26PM 32.9915 -117.5540 330° Northwest 317 365 15,000  Level FlightAware ADS-B (OPMT / MUX)
06:26PM 32.9982 -117.5588 329° Northwest 319 367 15,000  Level FlightAware ADS-B (EGPK / PIK)
06:26PM 33.0146 -117.5750 315° West 313 360 15,000  Level FlightAware ADS-B (OPMT / MUX)
06:26PM 33.0146 -117.5750 320° Northwest 315 362 15,000  Level FlightAware ADS-B
06:26PM 33.0209 -117.5846 304° West 312 359 15,000 2,880 Level FlightAware ADS-B (OPMT / MUX)
06:26PM 33.0371 -117.6135 306° West 303 349 16,200 3,840 Climbing FlightAware ADS-B
06:27PM 33.0471 -117.6298 307° West 296 341 17,000 3,840 Climbing FlightAware ADS-B (OPMT / MUX)
06:27PM 33.0787 -117.6777 308° West 283 326 19,600 3,780 Climbing FlightAware ADS-B (OPMT / MUX)
06:27PM 33.0758 -117.6732 307° West 284 327 19,900 2,520 Climbing FlightAware ADS-B (EGPK / PIK)
06:28PM 33.0997 -117.7104 308° West 298 343 20,700 2,400 Climbing FlightAware ADS-B (OPMT / MUX)
06:28PM 33.1156 -117.7340 309° West 306 352 21,500 2,520 Climbing FlightAware ADS-B (EGPK / PIK)
06:28PM 33.1311 -117.7583 306° West 302 348 22,200 2,520 Climbing FlightAware ADS-B (OPMT / MUX)
06:29PM 33.1444 -117.7800 308° West 306 352 22,900 2,640 Climbing FlightAware ADS-B
06:29PM 33.1562 -117.7979 310° West 309 356 23,500 2,580 Climbing FlightAware ADS-B (OPMT / MUX)
06:29PM 33.1854 -117.8375 312° West 313 360 24,700 2,580 Climbing FlightAware ADS-B (OPMT / MUX)
06:30PM 33.2051 -117.8639 311° West 312 359 25,700 3,060 Climbing FlightAware ADS-B (EGPK / PIK)
06:30PM 33.2138 -117.8758 311° West 309 356 26,200 3,060 Climbing FlightAware ADS-B (OPMT / MUX)
06:30PM 33.1156 -117.7340 310° West 302 348 27,600 3,000 Climbing FlightAware ADS-B (KSNA)
06:30PM 33.2413 -117.9144 311° West 302 348 27,700 2,400 Climbing FlightAware ADS-B (OPMT / MUX)
06:31PM 33.2667 -117.9513 310° West 307 353 28,900 1,800 Climbing FlightAware ADS-B (OPMT / MUX)
06:31PM 33.2947 -117.9917 310° West 321 369 29,500 1,020 Climbing FlightAware ADS-B (OPMT / MUX)
06:32PM 33.2983 -117.9967 311° West 334 384 29,600 540 Climbing FlightAware ADS-B (KSNA)
06:32PM 33.3264 -118.0360 311° West 351 404 29,800 360 Climbing FlightAware ADS-B (OPMT / MUX)
06:33PM 33.3690 -118.0966 310° West 376 433 30,000 180 Climbing FlightAware ADS-B (KSNA)
06:33PM 33.3819 -118.1152 310° West 381 438 30,000  Level FlightAware ADS-B (OPMT / MUX)
06:33PM 33.3865 -118.1219 309° West 389 448 30,000  Level FlightAware ADS-B (KSNA)
06:33PM 33.4163 -118.1651 310° West 392 451 30,000  Level FlightAware ADS-B (OPMT / MUX)
06:34PM 33.4452 -118.2067 310° West 398 458 30,000  Level FlightAware ADS-B (OPMT / MUX)
06:34PM 33.4651 -118.2353 310° West 400 460 30,000  Level FlightAware ADS-B (KSNA)
06:34PM 33.4849 -118.2638 310° West 401 461 30,000  Level FlightAware ADS-B (OPMT / MUX)
06:35PM 33.5221 -118.3175 310° West 404 465 30,000  Level FlightAware ADS-B (OPMT / MUX)
06:35PM 33.5529 -118.3620 310° West 408 470 30,000 240 Level FlightAware ADS-B (OPMT / MUX)
06:36PM 33.5640 -118.3779 310° West 408 470 30,200 900 Climbing FlightAware ADS-B (KSNA)
06:36PM 33.5931 -118.4201 310° West 408 470 30,500 3,480 Climbing FlightAware ADS-B (OPMT / MUX)
06:36PM 33.6183 -118.4565 310° West 384 442 32,200 3,780 Climbing FlightAware ADS-B (KSNA)
06:36PM 33.6348 -118.4803 310° West 365 420 32,900 3,960 Climbing FlightAware ADS-B (OPMT / MUX)
06:37PM 33.6730 -118.5356 310° West 338 389 35,500 2,880 Climbing FlightAware ADS-B (OPMT / MUX)
06:38PM 33.7342 -118.6248 309° West 311 358 38,000 1,080 Climbing FlightAware ADS-B (KSNA)
06:39PM 33.7998 -118.7205 309° West 343 395 38,000  Level FlightAware ADS-B
06:40PM 33.8242 -118.7561 310° West 350 403 38,000  Level FlightAware ADS-B (OPMT / MUX)
06:40PM 33.8418 -118.7818 309° West 357 411 38,000  Level FlightAware ADS-B
06:40PM 33.8723 -118.8265 309° West 364 419 38,000  Level FlightAware ADS-B (KSNA)
06:41PM 33.8851 -118.8452 310° West 365 420 38,000  Level FlightAware ADS-B (OPMT / MUX)
06:41PM 33.9287 -118.9089 309° West 370 426 38,000  Level FlightAware ADS-B
06:42PM 33.9903 -118.9993 309° West 366 421 38,000  Level FlightAware ADS-B
06:44PM 34.0779 -119.1283 309° West 361 415 38,000  Level FlightAware ADS-B
06:44PM 34.1128 -119.1800 309° West 358 412 38,000  Level FlightAware ADS-B
06:46PM 34.2140 -119.3297 309° West 358 412 38,000  Level FlightAware ADS-B
06:47PM 34.2887 -119.4408 309° West 358 412 38,000  Level FlightAware ADS-B
06:48PM 34.3586 -119.5450 309° West 358 412 38,000  Level FlightAware ADS-B
06:49PM 34.3915 -119.5940 314° West 362 417 38,000  Level FlightAware ADS-B
06:49PM 34.4222 -119.6285 326° Northwest 372 428 38,000  Level FlightAware ADS-B
06:50PM 34.5157 -119.7078 324° Northwest 371 427 38,000 -60 Level FlightAware ADS-B
06:51PM 34.5757 -119.7593 325° Northwest 372 428 37,900 -720 Descending FlightAware ADS-B
06:51PM 34.6303 -119.8061 325° Northwest 372 428 37,000 -1,440 Descending Los Angeles Center
06:52PM 34.7181 -119.8806 325° Northwest 381 438 35,500 -1,440 Descending Los Angeles Center
06:54PM 34.8047 -119.9561 324° Northwest 381 438 34,000 -1,440 Descending Los Angeles Center
06:55PM 34.8939 -120.0328 325° Northwest 387 445 32,500 -1,560 Descending Los Angeles Center
06:57PM 35.0075 -120.1308 325° Northwest 414 476 28,500 -1,500 Descending FlightAware ADS-B
06:58PM 35.1853 -120.2839 325° Northwest 409 471 28,000 -360 Descending Los Angeles Center
06:59PM 35.2769 -120.3631 325° Northwest 408 470 28,000  Level Los Angeles Center
07:00PM 35.3669 -120.4439 324° Northwest 405 466 28,000  Level Los Angeles Center
07:01PM 35.4631 -120.5292 324° Northwest 425 489 28,000  Level Los Angeles Center
07:02PM 35.5769 -120.6283 325° Northwest 423 487 28,000 -60 Level Los Angeles Center
07:03PM 35.6658 -120.7067 324° Northwest 422 486 27,900 -1,020 Descending Los Angeles Center
07:04PM 35.7578 -120.7872 325° Northwest 406 467 26,000 -1,980 Descending Oakland Center
07:05PM 35.8489 -120.8689 324° Northwest 403 464 24,000 -1,980 Descending Oakland Center
07:06PM 35.9394 -120.9483 325° Northwest 401 461 22,000 -1,980 Descending Oakland Center
07:07PM 36.0250 -121.0142 328° Northwest 366 421 20,000 -2,100 Descending Oakland Center
07:08PM 36.1189 -121.0525 342° North 356 410 17,700 -1,980 Descending Oakland Center
07:09PM 36.2125 -121.0778 348° North 342 394 16,000 -960 Descending Oakland Center
07:10PM 36.3158 -121.1033 349° North 314 361 15,800 -1,320 Descending Oakland Center
07:11PM 36.3997 -121.1289 346° North 310 357 13,400 -2,400 Descending Oakland Center
07:12PM 36.4778 -121.1539 346° North 294 338 11,000 -2,520 Descending Oakland Center
07:13PM 36.5525 -121.1836 342° North 285 328 8,300 -2,340 Descending Oakland Center
07:14PM 36.6231 -121.2119 342° North 273 314 6,300 -1,620 Descending Oakland Center
07:15PM 36.6836 -121.2331 344° North 235 270 5,000 -1,140 Descending Oakland Center
07:16PM 36.7369 -121.2586 339° North 213 245 4,000 -900 Descending Oakland Center
07:17PM 36.7806 -121.2967 325° Northwest 198 228 3,200 -900 Descending Oakland Center
07:18PM 36.8161 -121.3389 316° Northwest 184 212 2,200 -960 Descending Oakland Center
07:19PM 36.8475 -121.3719 320° Northwest 168 193 1,300 -900 Descending Oakland Center